Time;durP1;ratioP1;P1;durP2;ratioP2;P2;SDS_P1;SDS_P2;PMS_P1;PMS_P2;Temp;Humidity;BMP_temperature;BMP_pressure;BME280_temperature;BME280_humidity;BME280_pressure;Samples;Min_cycle;Max_cycle;Signal;HPM_P1;HPM_P2
2021/07/19 00:01:22;;;;;;;14.80;13.40;;;;;;;22.04;75.86;93646.16;828272;71;28695;-74
2021/07/19 00:16:21;;;;;;;13.87;12.57;;;;;;;22.20;76.93;93645.75;834811;71;29375;-76
2021/07/19 00:31:22;;;;;;;14.37;13.07;;;;;;;22.23;76.72;93654.93;834047;71;31076;-77
2021/07/19 00:46:17;;;;;;;14.43;13.17;;;;;;;22.17;77.12;93649.95;828155;71;29274;-73
2021/07/19 01:01:26;;;;;;;20.57;13.97;;;;;;;22.15;77.14;93642.89;827920;71;31859;-75
2021/07/19 01:16:11;;;;;;;14.37;13.07;;;;;;;22.05;77.13;93644.99;833914;71;28890;-76
2021/07/19 01:31:19;;;;;;;16.43;14.70;;;;;;;21.99;77.57;93654.53;827265;71;32424;-73
2021/07/19 01:46:22;;;;;;;16.30;14.70;;;;;;;22.00;77.67;93660.08;828283;71;28825;-74
2021/07/19 02:01:30;;;;;;;14.83;13.53;;;;;;;21.87;78.38;93656.23;828518;71;31765;-76
2021/07/19 02:16:33;;;;;;;16.17;14.67;;;;;;;21.73;78.83;93663.08;828247;71;28717;-74
2021/07/19 02:31:17;;;;;;;17.00;15.40;;;;;;;21.63;78.70;93667.83;828412;71;29741;-73
2021/07/19 02:46:14;;;;;;;15.80;14.30;;;;;;;21.49;77.87;93663.79;833887;71;30612;-76
2021/07/19 03:16:10;;;;;;;18.02;15.80;;;;;;;21.45;79.35;93696.38;828017;71;29720;-75
2021/07/19 03:31:09;;;;;;;23.40;20.90;;;;;;;21.62;78.68;93709.03;828042;71;30713;-74
2021/07/19 03:46:12;;;;;;;18.27;16.57;;;;;;;22.03;76.71;93719.42;828129;71;31484;-77
2021/07/19 04:01:18;;;;;;;17.07;15.57;;;;;;;22.64;74.96;93731.50;827689;71;33197;-75
2021/07/19 04:16:13;;;;;;;16.57;14.30;;;;;;;23.44;72.39;93733.45;828664;71;29805;-74
2021/07/19 04:31:23;;;;;;;17.30;15.57;;;;;;;24.35;69.33;93733.39;828412;71;29665;-73
2021/07/19 04:46:30;;;;;;;17.20;15.50;;;;;;;25.36;65.61;93748.04;834099;71;32998;-73
2021/07/19 05:01:31;;;;;;;16.83;14.80;;;;;;;26.43;60.71;93758.61;827499;71;32805;-74
2021/07/19 05:16:17;;;;;;;17.20;15.20;;;;;;;27.22;57.96;93774.86;828089;71;29773;-74
2021/07/19 05:31:29;;;;;;;18.23;16.73;;;;;;;27.88;55.40;93763.84;828236;71;28662;-74
2021/07/19 05:46:13;;;;;;;17.43;15.90;;;;;;;28.07;54.68;93758.23;834049;71;28990;-75
2021/07/19 06:01:12;;;;;;;17.20;15.77;;;;;;;28.17;52.15;93769.98;828162;71;29170;-75
2021/07/19 06:16:11;;;;;;;16.60;15.10;;;;;;;28.73;51.56;93775.30;828085;71;30820;-75
2021/07/19 06:31:22;;;;;;;14.50;13.20;;;;;;;29.55;49.00;93776.52;828262;71;29047;-74
2021/07/19 06:46:20;;;;;;;14.90;13.57;;;;;;;30.03;47.28;93762.48;833936;71;28334;-73
2021/07/19 07:01:17;;;;;;;15.57;14.17;;;;;;;30.18;47.23;93756.07;828313;71;29749;-75
2021/07/19 07:16:16;;;;;;;15.28;13.98;;;;;;;30.70;45.51;93747.52;828964;71;27951;-74
2021/07/19 07:31:19;;;;;;;16.73;15.23;;;;;;;29.13;49.08;93723.01;827451;71;32882;-74
2021/07/19 07:46:11;;;;;;;16.73;15.40;;;;;;;28.00;51.43;93719.86;828260;71;29802;-75
2021/07/19 08:01:08;;;;;;;16.60;15.10;;;;;;;28.29;51.58;93718.05;828168;71;29705;-75
2021/07/19 08:02:13;;;;;;;17.93;16.20;;;;;;;28.31;51.60;93714.34;808536;72;27206;-77
2021/07/19 08:16:28;;;;;;;15.60;14.30;;;;;;;28.72;49.58;93718.41;827982;71;33305;-75
2021/07/19 08:31:19;;;;;;;14.93;13.63;;;;;;;28.48;49.49;93705.64;833962;71;30261;-74
2021/07/19 08:46:41;;;;;;;14.30;13.10;;;;;;;29.03;46.88;93709.16;827271;71;32702;-75
2021/07/19 09:16:08;;;;;;;13.10;12.10;;;;;;;29.89;45.15;93696.03;833817;71;29380;-76
2021/07/19 09:31:09;;;;;;;14.93;13.63;;;;;;;30.55;44.19;93682.19;827957;71;30652;-74
2021/07/19 09:46:09;;;;;;;18.07;16.27;;;;;;;30.39;44.50;93690.45;833895;71;29593;-76
2021/07/19 10:01:29;;;;;;;18.00;16.60;;;;;;;30.79;43.86;93690.55;827451;71;32717;-74
2021/07/19 10:16:32;;;;;;;17.80;16.07;;;;;;;31.24;42.84;93676.63;828741;71;30016;-77
2021/07/19 10:31:20;;;;;;;17.50;16.00;;;;;;;31.72;42.03;93669.11;829386;71;30134;-74
2021/07/19 10:46:33;;;;;;;18.77;16.97;;;;;;;31.17;43.25;93653.84;828087;71;29935;-73
2021/07/19 11:01:23;;;;;;;18.80;17.10;;;;;;;31.81;41.64;93630.40;833972;71;30363;-74
2021/07/19 11:16:22;;;;;;;18.37;16.80;;;;;;;31.92;41.52;93602.26;829288;71;32833;-77
2021/07/19 11:31:21;;;;;;;20.47;18.60;;;;;;;30.86;42.20;93602.24;827358;71;33720;-74
2021/07/19 11:46:32;;;;;;;21.83;19.63;;;;;;;30.19;44.87;93595.17;834073;71;29510;-76
2021/07/19 12:01:30;;;;;;;20.40;18.33;;;;;;;30.16;44.43;93584.63;828112;71;31237;-75
2021/07/19 12:16:19;;;;;;;20.37;18.43;;;;;;;30.66;43.13;93559.98;828849;71;29709;-74
2021/07/19 12:31:37;;;;;;;22.17;19.90;;;;;;;30.74;43.56;93527.98;828112;71;30539;-74
2021/07/19 12:46:15;;;;;;;19.77;18.07;;;;;;;30.66;43.95;93559.98;833908;71;29339;-75
2021/07/19 13:01:13;;;;;;;19.43;17.70;;;;;;;30.05;44.61;93524.10;828293;71;29685;-74
2021/07/19 13:02:18;;;;;;;19.30;17.37;;;;;;;30.00;44.84;93530.05;808503;73;27182;-75
2021/07/19 13:16:11;;;;;;;19.93;18.23;;;;;;;30.84;44.44;93517.94;828037;71;30113;-75
2021/07/19 13:31:30;;;;;;;19.57;17.77;;;;;;;30.83;43.47;93497.47;834062;71;33240;-73
2021/07/19 13:46:36;;;;;;;20.80;18.80;;;;;;;30.27;44.83;93520.09;828198;71;30387;-74
2021/07/19 14:01:19;;;;;;;21.70;19.60;;;;;;;29.98;46.25;93520.87;828181;71;29556;-74
2021/07/19 14:16:18;;;;;;;23.47;21.30;;;;;;;29.68;47.22;93532.41;834537;71;29450;-74
2021/07/19 14:31:21;;;;;;;18.83;15.17;;;;;;;28.57;53.50;93574.16;827550;71;32795;-74
2021/07/19 14:46:19;;;;;;;128.17;92.90;;;;;;;27.28;56.43;93622.95;827497;71;33337;-74
2021/07/19 15:16:09;;;;;;;14.07;12.70;;;;;;;25.35;64.80;93641.77;827893;71;30288;-75
2021/07/19 15:31:08;;;;;;;17.40;14.53;;;;;;;25.11;69.86;93644.16;833852;71;30229;-74
2021/07/19 15:46:09;;;;;;;16.60;14.90;;;;;;;24.45;74.84;93715.67;828190;71;30279;-73
2021/07/19 16:01:12;;;;;;;20.60;15.67;;;;;;;23.82;79.03;93709.59;828223;71;30240;-74
2021/07/19 16:16:12;;;;;;;16.40;14.00;;;;;;;22.92;79.57;93764.73;828066;71;30272;-74
2021/07/19 16:31:08;;;;;;;15.80;14.07;;;;;;;22.51;82.88;93761.13;834061;71;29711;-74
2021/07/19 16:32:12;;;;;;;15.10;13.60;;;;;;;22.47;83.55;93765.71;821861;72;26968;-76
2021/07/19 16:46:25;;;;;;;18.77;16.13;;;;;;;22.59;83.37;93794.75;828155;71;32056;-75
2021/07/19 16:47:29;;;;;;;17.70;15.83;;;;;;;22.56;83.94;93792.24;808637;73;26585;-76
2021/07/19 17:01:35;;;;;;;15.93;14.00;;;;;;;22.77;82.88;93808.89;827210;71;32833;-74
2021/07/19 17:16:34;;;;;;;17.83;16.13;;;;;;;22.82;81.69;93823.03;834673;71;29748;-74
2021/07/19 17:31:16;;;;;;;15.00;13.50;;;;;;;22.83;80.76;93845.39;828193;71;30113;-75
2021/07/19 17:46:24;;;;;;;17.10;14.70;;;;;;;22.86;79.83;93825.13;829811;71;32760;-75
2021/07/19 18:16:12;;;;;;;14.00;12.67;;;;;;;22.95;79.30;93849.58;829147;71;29715;-75
2021/07/19 18:46:21;;;;;;;16.50;14.80;;;;;;;22.97;78.58;93863.34;834077;71;30207;-77
2021/07/19 19:01:21;;;;;;;15.47;13.87;;;;;;;23.01;79.70;93864.10;834012;71;29769;-74
2021/07/19 19:16:17;;;;;;;17.40;14.37;;;;;;;22.94;80.33;93886.86;828230;71;30234;-75
2021/07/19 19:31:23;;;;;;;16.43;14.83;;;;;;;22.82;79.47;93882.64;834450;71;29743;-75
2021/07/19 20:01:26;;;;;;;15.63;14.03;;;;;;;22.66;78.91;93892.94;828588;71;29680;-76
2021/07/19 20:16:58;;;;;;;20.07;18.00;;;;;;;22.62;81.19;93894.84;818089;71;32774;-75
2021/07/19 20:31:23;;;;;;;17.33;15.47;;;;;;;22.63;81.20;93893.13;827280;71;32764;-74
2021/07/19 20:46:16;;;;;;;19.90;17.80;;;;;;;22.63;81.13;93889.67;828529;71;30528;-75
2021/07/19 21:16:14;;;;;;;17.67;16.07;;;;;;;22.39;83.57;93897.27;827391;71;32813;-75
2021/07/19 21:31:12;;;;;;;18.47;16.73;;;;;;;22.28;83.48;93909.82;828036;71;30404;-75
2021/07/19 21:46:15;;;;;;;17.37;15.57;;;;;;;22.24;83.44;93920.49;829334;71;29657;-76
2021/07/19 22:01:27;;;;;;;19.20;17.30;;;;;;;22.25;83.09;93918.61;834218;70;32791;-77
2021/07/19 22:16:09;;;;;;;18.27;16.37;;;;;;;22.23;82.20;93924.88;828248;71;29667;-75
2021/07/19 22:31:34;;;;;;;16.90;15.30;;;;;;;22.15;80.60;93913.38;828050;71;30748;-74
2021/07/19 22:46:19;;;;;;;16.60;14.90;;;;;;;22.07;80.63;93903.22;833882;71;30283;-76
2021/07/19 23:01:25;;;;;;;16.97;15.13;;;;;;;22.00;80.22;93907.22;835225;71;32091;-75
2021/07/19 23:16:47;;;;;;;17.27;15.57;;;;;;;21.92;80.07;93912.33;833942;71;32790;-73
2021/07/19 23:31:15;;;;;;;17.20;15.50;;;;;;;21.94;81.04;93917.48;828745;71;32917;-75
2021/07/19 23:46:23;;;;;;;17.47;15.77;;;;;;;21.94;81.36;93911.39;834362;71;29777;-74
